Metar z połowy godziny Komunikat METAR ze strony awiacja.imgw.pl Metar G30 EPLL METAR EPLL 231230Z 25009KT 200V270 CAVOK 22/10 Q1011 =